createdAt,value
2023-03-05T00:00:54.784Z,20.50
2023-03-05T00:05:57.069Z,19.05
2023-03-05T00:11:00.373Z,22.20
2023-03-05T00:16:06.951Z,20.77
2023-03-05T00:21:21.851Z,20.10
2023-03-05T00:26:25.833Z,21.85
2023-03-05T00:31:29.953Z,19.65
2023-03-05T00:36:32.237Z,21.95
2023-03-05T00:41:33.793Z,19.58
2023-03-05T00:46:35.926Z,22.10
2023-03-05T00:51:37.454Z,20.55
2023-03-05T00:56:38.992Z,22.85
2023-03-05T01:01:40.621Z,19.90
2023-03-05T01:06:42.214Z,20.58
2023-03-05T01:11:43.697Z,20.25
2023-03-05T01:16:45.504Z,20.75
2023-03-05T01:21:48.117Z,22.52
2023-03-05T01:26:49.897Z,21.60
2023-03-05T01:31:51.374Z,19.80
2023-03-05T01:36:53.322Z,20.92
2023-03-05T01:41:54.819Z,22.30
2023-03-05T01:46:56.488Z,20.90
2023-03-05T01:52:07.026Z,21.27
2023-03-05T01:57:22.905Z,20.25
2023-03-05T02:02:25.339Z,20.38
2023-03-05T02:07:27.159Z,20.30
2023-03-05T02:12:28.680Z,21.77
2023-03-05T02:17:30.531Z,19.15
2023-03-05T02:22:32.041Z,19.15
2023-03-05T02:27:33.854Z,21.73
2023-03-05T02:32:35.371Z,21.23
2023-03-05T02:37:37.044Z,19.88
2023-03-05T02:42:39.065Z,22.38
2023-03-05T02:47:41.190Z,20.17
2023-03-05T02:52:43.636Z,20.58
2023-03-05T02:57:49.116Z,21.00
2023-03-05T03:02:50.669Z,21.38
2023-03-05T03:07:52.163Z,22.83
2023-03-05T03:12:53.626Z,20.38
2023-03-05T03:17:55.466Z,21.05
2023-03-05T03:22:56.912Z,20.65
2023-03-05T03:27:58.418Z,20.77
2023-03-05T03:32:59.878Z,21.90
2023-03-05T03:38:01.563Z,22.17
2023-03-05T03:43:03.228Z,20.67
2023-03-05T03:48:04.846Z,20.55
2023-03-05T03:53:07.065Z,21.58
2023-03-05T03:58:09.162Z,19.25
2023-03-05T04:03:10.609Z,20.75
2023-03-05T04:08:12.148Z,23.35
2023-03-05T04:13:13.686Z,20.83
2023-03-05T04:18:15.128Z,21.38
2023-03-05T04:23:16.856Z,21.58
2023-03-05T04:28:18.324Z,21.70
2023-03-05T04:33:20.019Z,21.92
2023-03-05T04:38:21.937Z,20.88
2023-03-05T04:43:23.484Z,20.40
2023-03-05T04:48:25.753Z,22.00
2023-03-05T04:53:27.279Z,19.85
2023-03-05T04:58:29.146Z,21.60
2023-03-05T05:03:31.206Z,22.33
2023-03-05T05:08:33.087Z,21.55
2023-03-05T05:13:34.920Z,22.48
2023-03-05T05:18:36.392Z,20.20
2023-03-05T05:23:38.903Z,20.58
2023-03-05T05:28:42.408Z,23.27
2023-03-05T05:33:44.201Z,23.20
2023-03-05T05:38:45.658Z,20.60
2023-03-05T05:43:47.656Z,21.83
2023-03-05T05:48:49.169Z,23.08
2023-03-05T05:53:51.269Z,19.30
2023-03-05T05:58:52.972Z,20.65
2023-03-05T06:03:55.357Z,20.90
2023-03-05T06:08:56.908Z,21.58
2023-03-05T06:13:58.439Z,21.48
2023-03-05T06:19:00.202Z,22.48
2023-03-05T06:24:01.762Z,21.33
2023-03-05T06:29:03.421Z,22.02
2023-03-05T06:34:05.049Z,24.60
2023-03-05T06:39:06.690Z,32.83
2023-03-05T06:44:08.159Z,28.90
2023-03-05T06:49:10.611Z,24.95
2023-03-05T06:54:15.383Z,22.70
2023-03-05T06:59:17.254Z,22.30
2023-03-05T07:04:18.857Z,25.00
2023-03-05T07:09:20.408Z,24.88
2023-03-05T07:14:21.916Z,22.73
2023-03-05T07:19:23.425Z,20.50
2023-03-05T07:24:24.950Z,21.17
2023-03-05T07:29:27.837Z,20.85
2023-03-05T07:34:29.408Z,21.67
2023-03-05T07:39:30.958Z,22.73
2023-03-05T07:44:32.416Z,20.92
2023-03-05T07:49:33.859Z,21.50
2023-03-05T07:54:38.963Z,24.10
2023-03-05T07:59:40.486Z,19.08
2023-03-05T08:04:42.027Z,24.00
2023-03-05T08:09:43.569Z,21.67
2023-03-05T08:14:45.080Z,23.17
2023-03-05T08:19:46.610Z,20.45
2023-03-05T08:24:48.159Z,21.40
2023-03-05T08:29:49.638Z,21.80
2023-03-05T08:34:51.113Z,23.02
2023-03-05T08:39:52.641Z,20.65
2023-03-05T08:44:54.228Z,20.23
2023-03-05T08:49:55.869Z,24.98
2023-03-05T08:54:57.482Z,19.42
2023-03-05T08:59:59.008Z,21.67
2023-03-05T09:05:00.504Z,20.92
2023-03-05T09:10:02.128Z,21.65
2023-03-05T09:15:08.674Z,21.42
2023-03-05T09:20:13.424Z,21.95
2023-03-05T09:25:14.904Z,22.08
2023-03-05T09:30:16.634Z,26.25
2023-03-05T09:35:18.256Z,20.70
2023-03-05T09:40:22.051Z,20.98
2023-03-05T09:45:56.196Z,20.55
2023-03-05T09:51:03.532Z,20.92
2023-03-05T09:56:12.137Z,21.42
2023-03-05T10:01:23.409Z,20.58
2023-03-05T10:06:24.806Z,21.10
2023-03-05T10:11:47.970Z,22.05
2023-03-05T10:17:16.680Z,22.05
2023-03-05T10:22:20.638Z,23.77
2023-03-05T10:27:47.285Z,21.75
2023-03-05T10:32:57.554Z,23.23
2023-03-05T10:38:06.565Z,21.25
2023-03-05T10:43:18.449Z,20.92
2023-03-05T10:48:27.561Z,24.77
2023-03-05T10:53:34.460Z,21.08
2023-03-05T10:58:35.951Z,23.40
2023-03-05T11:04:14.426Z,22.35
2023-03-05T11:09:20.696Z,23.90
2023-03-05T11:14:25.756Z,23.77
2023-03-05T11:19:32.128Z,20.55
2023-03-05T11:24:33.669Z,24.63
2023-03-05T11:29:46.737Z,23.65
2023-03-05T11:34:48.396Z,22.70
2023-03-05T11:40:14.464Z,22.60
2023-03-05T11:45:18.549Z,20.80
2023-03-05T11:50:32.105Z,23.88
2023-03-05T11:55:43.048Z,22.95
2023-03-05T12:00:46.946Z,22.92
2023-03-05T12:05:53.395Z,23.08
2023-03-05T12:10:55.873Z,24.20
2023-03-05T12:16:14.411Z,23.55
2023-03-05T12:21:25.135Z,21.17
2023-03-05T12:26:54.209Z,23.65
2023-03-05T12:31:55.974Z,20.33
2023-03-05T12:36:57.554Z,21.35
2023-03-05T12:41:59.078Z,19.45
2023-03-05T12:47:12.653Z,20.42
2023-03-05T12:52:26.304Z,21.73
2023-03-05T12:57:29.947Z,23.92
2023-03-05T13:02:36.888Z,20.52
2023-03-05T13:07:38.335Z,22.20
2023-03-05T13:12:39.968Z,22.15
2023-03-05T13:17:57.061Z,23.23
2023-03-05T13:23:22.274Z,19.88
2023-03-05T13:28:24.347Z,18.23
2023-03-05T13:33:30.034Z,19.45
2023-03-05T13:38:44.621Z,16.85
2023-03-05T13:43:49.995Z,20.27
2023-03-05T13:48:51.549Z,17.67
2023-03-05T13:53:53.288Z,17.77
2023-03-05T13:58:57.118Z,18.38
2023-03-05T14:04:23.209Z,19.92
2023-03-05T14:09:27.936Z,16.58
2023-03-05T14:14:34.214Z,18.05
2023-03-05T14:19:38.862Z,17.60
2023-03-05T14:24:40.471Z,17.98
2023-03-05T14:29:46.807Z,18.45
2023-03-05T14:34:54.557Z,17.88
2023-03-05T14:39:58.450Z,19.38
2023-03-05T14:45:21.365Z,14.68
2023-03-05T14:50:28.623Z,18.33
2023-03-05T14:55:32.179Z,15.40
2023-03-05T15:00:33.692Z,15.70
2023-03-05T15:05:37.134Z,17.25
2023-03-05T15:10:38.626Z,17.92
2023-03-05T15:15:41.377Z,17.95
2023-03-05T15:20:44.264Z,16.55
2023-03-05T15:25:45.828Z,18.02
2023-03-05T15:30:47.964Z,16.70
2023-03-05T15:35:49.709Z,16.88
2023-03-05T15:40:52.008Z,15.52
2023-03-05T15:45:53.552Z,17.65
2023-03-05T15:50:55.064Z,16.50
2023-03-05T15:55:56.579Z,14.93
2023-03-05T16:00:58.092Z,14.13
2023-03-05T16:05:59.661Z,16.33
2023-03-05T16:11:01.357Z,13.57
2023-03-05T16:16:06.817Z,15.65
2023-03-05T16:21:08.380Z,13.30
2023-03-05T16:26:09.933Z,12.00
2023-03-05T16:31:11.576Z,10.95
2023-03-05T16:36:24.652Z,9.05
2023-03-05T16:41:26.880Z,9.43
2023-03-05T16:46:29.691Z,9.98
2023-03-05T16:51:31.271Z,9.90
2023-03-05T16:56:32.794Z,9.77
2023-03-05T17:01:34.304Z,8.38
2023-03-05T17:06:35.812Z,8.65
2023-03-05T17:11:37.276Z,10.02
2023-03-05T17:16:38.775Z,8.05
2023-03-05T17:21:42.308Z,9.95
2023-03-05T17:26:44.279Z,9.02
2023-03-05T17:31:45.905Z,8.70
2023-03-05T17:36:47.751Z,7.68
2023-03-05T17:41:49.255Z,8.15
2023-03-05T17:46:50.808Z,9.73
2023-03-05T17:51:52.288Z,10.38
2023-03-05T17:56:55.149Z,10.02
2023-03-05T18:01:56.666Z,10.15
2023-03-05T18:06:58.197Z,8.35
2023-03-05T18:11:59.793Z,8.30
2023-03-05T18:17:01.284Z,7.28
2023-03-05T18:22:02.823Z,6.97
2023-03-05T18:27:04.421Z,7.10
2023-03-05T18:32:06.057Z,7.95
2023-03-05T18:37:07.573Z,9.15
2023-03-05T18:42:12.960Z,9.05
2023-03-05T18:47:14.461Z,9.05
2023-03-05T18:52:15.984Z,8.05
2023-03-05T18:57:17.493Z,8.02
2023-03-05T19:02:19.022Z,10.20
2023-03-05T19:07:20.552Z,8.88
2023-03-05T19:12:24.531Z,12.77
2023-03-05T19:17:26.051Z,10.90
2023-03-05T19:22:29.888Z,10.75
2023-03-05T19:27:31.388Z,10.02
2023-03-05T19:32:33.037Z,10.65
2023-03-05T19:37:34.534Z,10.20
2023-03-05T19:42:35.968Z,8.25
2023-03-05T19:47:37.500Z,10.77
2023-03-05T19:52:39.032Z,10.98
2023-03-05T19:57:40.577Z,10.60
2023-03-05T20:02:42.061Z,13.60
2023-03-05T20:07:43.643Z,14.90
2023-03-05T20:12:45.163Z,16.05
2023-03-05T20:17:46.683Z,14.15
2023-03-05T20:22:48.303Z,14.93
2023-03-05T20:27:50.714Z,16.63
2023-03-05T20:32:52.177Z,13.95
2023-03-05T20:37:59.642Z,13.52
2023-03-05T20:43:01.078Z,14.13
2023-03-05T20:48:02.595Z,14.55
2023-03-05T20:53:04.379Z,13.23
2023-03-05T20:58:05.961Z,14.10
2023-03-05T21:03:08.464Z,12.98
2023-03-05T21:08:09.985Z,12.60
2023-03-05T21:13:11.462Z,15.73
2023-03-05T21:18:12.915Z,13.35
2023-03-05T21:23:14.380Z,13.95
2023-03-05T21:28:16.434Z,17.27
2023-03-05T21:33:23.822Z,18.88
2023-03-05T21:38:25.729Z,15.80
2023-03-05T21:43:27.732Z,15.85
2023-03-05T21:48:29.686Z,16.67
2023-03-05T21:53:31.223Z,15.88
2023-03-05T21:58:34.605Z,17.17
2023-03-05T22:03:36.161Z,15.73
2023-03-05T22:08:37.778Z,18.38
2023-03-05T22:13:39.881Z,15.93
2023-03-05T22:18:41.414Z,18.30
2023-03-05T22:23:42.921Z,16.77
2023-03-05T22:28:44.398Z,18.10
2023-03-05T22:33:45.898Z,17.15
2023-03-05T22:38:47.576Z,18.33
2023-03-05T22:43:50.628Z,17.65
2023-03-05T22:48:52.695Z,16.45
2023-03-05T22:53:54.189Z,21.25
2023-03-05T22:58:57.079Z,16.77
2023-03-05T23:03:58.626Z,18.23
2023-03-05T23:09:00.225Z,18.20
2023-03-05T23:14:01.766Z,16.75
2023-03-05T23:19:03.323Z,19.67
2023-03-05T23:24:05.158Z,18.77
2023-03-05T23:29:06.627Z,21.55
2023-03-05T23:34:08.112Z,17.83
2023-03-05T23:39:09.580Z,17.08
2023-03-05T23:44:11.096Z,18.13
2023-03-05T23:49:12.632Z,17.27
2023-03-05T23:54:14.103Z,16.52
2023-03-05T23:59:15.607Z,18.30
